Terminal Aerodrome Forecast (TAF)

TAF

Data at: 1700 UTC 24 Jul 2021

TAF for:NVSC (Sola/Vanua Lava Arpt, TO, NV) issued at 1600 UTC 24 Jul 2021
Text:TAF NVSC 241600Z 2418/2518 VRB04KT 9999 BKN020 OVC045
Forecast period:1800 UTC 24 July 2021 to 1800 UTC 25 July 2021
Forecast type:FROM: standard forecast or significant change
Winds:variable direction winds at 5 MPH (4 knots; 2.1 m/s)
Visibility:6 or more sm (10+ km)
Ceiling:2000 feet AGL
Clouds: broken clouds at 2000 feet AGL, overcast cloud deck at 4500 feet AGL
Text:PROB40
Forecast period:1800 UTC 24 July 2021 to 0000 UTC 25 July 2021
Forecast type:TEMPORARY: The following changes expected for less than half the time period
Visibility: 6 sm ( 9 km)
Ceiling:1800 feet AGL
Clouds: broken clouds at 1800 feet AGL
Weather:-SHRA (light rain showers)

TAF

Data at: 1700 UTC 24 Jul 2021

TAF for:NVSG (Longana Arpt, PA, NV) issued at 1600 UTC 24 Jul 2021
Text:TAF NVSG 241600Z 2418/2518 VRB04KT 9999 SCT020 BKN40
Forecast period:1800 UTC 24 July 2021 to 1800 UTC 25 July 2021
Forecast type:FROM: standard forecast or significant change
Winds:variable direction winds at 5 MPH (4 knots; 2.1 m/s)
Visibility:6 or more sm (10+ km)
Ceiling:at least 12,000 feet AGL
Clouds: scattered clouds at 2000 feet AGL
Text:PROB40
Forecast period:1800 UTC 24 July 2021 to 0000 UTC 25 July 2021
Forecast type:TEMPORARY: The following changes expected for less than half the time period
Visibility: 6 sm ( 9 km)
Ceiling:1800 feet AGL
Clouds: broken clouds at 1800 feet AGL
Weather:-SHRA (light rain showers)

TAF

Data at: 1700 UTC 24 Jul 2021

TAF for:NVSS (Santo/Pekoa Intl, SA, NV) issued at 1600 UTC 24 Jul 2021
Text:TAF NVSS 241600Z 2418/2518 VRB04KT 9999 SCT020 BKN040
Forecast period:1800 UTC 24 July 2021 to 1800 UTC 25 July 2021
Forecast type:FROM: standard forecast or significant change
Winds:variable direction winds at 5 MPH (4 knots; 2.1 m/s)
Visibility:6 or more sm (10+ km)
Ceiling:4000 feet AGL
Clouds: scattered clouds at 2000 feet AGL, broken clouds at 4000 feet AGL
Text:PROB40
Forecast period:1800 UTC 24 July 2021 to 0000 UTC 25 July 2021
Forecast type:TEMPORARY: The following changes expected for less than half the time period
Visibility: 6 sm ( 9 km)
Ceiling:1800 feet AGL
Clouds: broken clouds at 1800 feet AGL
Weather:-SHRA (light rain showers)

TAF

Data at: 1700 UTC 24 Jul 2021

TAF for:NVSL (Malekula Isl/Lamap, MA, NV) issued at 1600 UTC 24 Jul 2021
Text:TAF NVSL 241600Z 2418/2518 VRB03KT 9999 SCT020 BKN040
Forecast period:1800 UTC 24 July 2021 to 1800 UTC 25 July 2021
Forecast type:FROM: standard forecast or significant change
Winds:variable direction winds at 3 MPH (3 knots; 1.5 m/s)
Visibility:6 or more sm (10+ km)
Ceiling:4000 feet AGL
Clouds: scattered clouds at 2000 feet AGL, broken clouds at 4000 feet AGL
Text:PROB40
Forecast period:1800 UTC 24 July 2021 to 0000 UTC 25 July 2021
Forecast type:TEMPORARY: The following changes expected for less than half the time period
Visibility: 6 sm ( 9 km)
Ceiling:1800 feet AGL
Clouds: broken clouds at 1800 feet AGL
Weather:-SHRA (light rain showers)

TAF

Data at: 1700 UTC 24 Jul 2021

TAF for:NVSP (Norsup Arpt, MA, NV) issued at 1600 UTC 24 Jul 2021
Text:TAF NVSP 241600Z 2418/2518 VRB03KT 9999 SCT020 BKN040
Forecast period:1800 UTC 24 July 2021 to 1800 UTC 25 July 2021
Forecast type:FROM: standard forecast or significant change
Winds:variable direction winds at 3 MPH (3 knots; 1.5 m/s)
Visibility:6 or more sm (10+ km)
Ceiling:4000 feet AGL
Clouds: scattered clouds at 2000 feet AGL, broken clouds at 4000 feet AGL
Text:PROB40
Forecast period:1800 UTC 24 July 2021 to 1800 UTC 25 July 2021
Forecast type:FROM: standard forecast or significant change
Clouds:missing

TAF

Data at: 1700 UTC 24 Jul 2021

TAF for:NVVV (Efate/Bauerfield Int, SE, NV) issued at 1600 UTC 24 Jul 2021
Text:TAF NVVV 241600Z 2418/2518 VRB02KT 9999 SCT020 BKN040
Forecast period:1800 UTC 24 July 2021 to 1800 UTC 25 July 2021
Forecast type:FROM: standard forecast or significant change
Winds:variable direction winds at 2 MPH (2 knots; 1.0 m/s)
Visibility:6 or more sm (10+ km)
Ceiling:4000 feet AGL
Clouds: scattered clouds at 2000 feet AGL, broken clouds at 4000 feet AGL
Text:PROB40
Forecast period:1800 UTC 24 July 2021 to 0000 UTC 25 July 2021
Forecast type:TEMPORARY: The following changes expected for less than half the time period
Visibility: 6 sm ( 9 km)
Ceiling:1800 feet AGL
Clouds: broken clouds at 1800 feet AGL
Weather:-SHRA (light rain showers)

TAF

Data at: 1700 UTC 24 Jul 2021

TAF for:NVVW (Tanna Arpt, TA, NV) issued at 1600 UTC 24 Jul 2021
Text:TAF NVVW 241600Z 2418/2518 VRB02KT 9999 SCT020 BKN040
Forecast period:1800 UTC 24 July 2021 to 1800 UTC 25 July 2021
Forecast type:FROM: standard forecast or significant change
Winds:variable direction winds at 2 MPH (2 knots; 1.0 m/s)
Visibility:6 or more sm (10+ km)
Ceiling:4000 feet AGL
Clouds: scattered clouds at 2000 feet AGL, broken clouds at 4000 feet AGL
Text:PROB40
Forecast period:1800 UTC 24 July 2021 to 0000 UTC 25 July 2021
Forecast type:TEMPORARY: The following changes expected for less than half the time period
Visibility: 6 sm ( 9 km)
Ceiling:1800 feet AGL
Clouds: broken clouds at 1800 feet AGL
Weather:-SHRA (light rain showers)

TAF

Data at: 1700 UTC 24 Jul 2021

TAF for:NVVA (Aneityum/Mystery Isl, TA, NV) issued at 1600 UTC 24 Jul 2021
Text:TAF NVVA 241600Z 2418/2518 VRB02KT 9999 SCT020 OVC045
Forecast period:1800 UTC 24 July 2021 to 1800 UTC 25 July 2021
Forecast type:FROM: standard forecast or significant change
Winds:variable direction winds at 2 MPH (2 knots; 1.0 m/s)
Visibility:6 or more sm (10+ km)
Ceiling:4500 feet AGL
Clouds: scattered clouds at 2000 feet AGL, overcast cloud deck at 4500 feet AGL
Text:PROB40
Forecast period:1800 UTC 24 July 2021 to 0000 UTC 25 July 2021
Forecast type:TEMPORARY: The following changes expected for less than half the time period
Visibility: 6 sm ( 9 km)
Ceiling:4000 feet AGL
Clouds: few clouds at 1500 feet AGL, broken clouds at 4000 feet AGL
Weather:SHRA (rain showers)

TAF

Data at: 1700 UTC 24 Jul 2021

TAF NVVV 241600Z 2418/2518 VRB02KT 9999 SCT020 BKN040
  PROB40
  INTER 2418/2424 9000 -SHRA BKN018
TAF NVSC 241600Z 2418/2518 VRB04KT 9999 BKN020 OVC045
  PROB40
  INTER 2418/2424 9000 -SHRA BKN018
TAF NVSG 241600Z 2418/2518 VRB04KT 9999 SCT020 BKN40
  PROB40
  INTER 2418/2424 9000 -SHRA BKN018
TAF NVSS 241600Z 2418/2518 VRB04KT 9999 SCT020 BKN040
  PROB40
  INTER 2418/2424 9000 -SHRA BKN018
TAF NVSL 241600Z 2418/2518 VRB03KT 9999 SCT020 BKN040
  PROB40
  INTER 2418/2424 9000 -SHRA BKN018
TAF NVSP 241600Z 2418/2518 VRB03KT 9999 SCT020 BKN040
  PROB40
  INTER 2418/24 9000 -SHRA BKN018
TAF NVVW 241600Z 2418/2518 VRB02KT 9999 SCT020 BKN040
  PROB40
  INTER 2418/2424 9000 -SHRA BKN018
TAF NVVA 241600Z 2418/2518 VRB02KT 9999 SCT020 OVC045
  PROB40
  INTER 2418/2424 9000 SHRA FEW015 BKN040